MDT,Max TemperatureF,Mean TemperatureF,Min TemperatureF,Max Dew PointF,MeanDew PointF,Min DewpointF,Max Humidity, Mean Humidity, Min Humidity, Max Sea Level PressureIn, Mean Sea Level PressureIn, Min Sea Level PressureIn, Max VisibilityMiles, Mean VisibilityMiles, Min VisibilityMiles, Max Wind SpeedMPH, Mean Wind SpeedMPH, Max Gust SpeedMPH,PrecipitationIn, CloudCover, Events, WindDirDegrees
2013-3-1,63,46,28,16,8,3,40,25,10,30.31,30.21,30.15,10,10,10,20,8,28,0.00,0,,7
2013-3-2,65,47,28,18,13,8,43,29,15,30.40,30.25,30.08,10,10,10,14,6,20,0.00,0,,178
2013-3-3,84,58,31,20,9,-4,43,23,3,30.08,29.82,29.64,10,10,10,29,9,36,0.00,0,,244
2013-3-4,79,61,42,34,20,14,46,27,8,30.08,29.68,29.52,10,9,6,40,18,49,0.00,1,,281
2013-3-5,56,44,32,25,20,15,64,45,26,30.41,30.28,30.15,10,10,9,30,8,39,0.00,1,,165
2013-3-6,67,49,31,19,17,13,49,33,16,30.25,30.09,29.94,10,10,10,23,10,29,0.00,1,,167
2013-3-7,81,59,36,27,20,14,37,25,12,29.98,29.87,29.76,10,10,10,21,9,28,0.00,0,,160
2013-3-8,79,65,50,40,34,29,55,36,16,29.83,29.71,29.62,10,10,9,32,14,41,T,3,,201
2013-3-9,60,51,42,38,22,10,59,37,14,29.85,29.71,29.62,10,10,8,33,16,44,0.00,2,,269
2013-3-10,51,43,34,23,15,10,46,35,23,30.12,30.06,29.89,10,10,10,25,8,30,0.00,5,,10
2013-3-11,73,49,24,20,12,8,47,28,9,30.09,29.97,29.83,10,10,10,14,5,18,0.00,0,,210
2013-3-12,64,52,39,28,22,12,59,41,22,30.26,30.11,29.87,10,10,10,24,9,29,0.00,0,,45
2013-3-13,74,53,31,24,20,16,47,31,14,30.32,30.21,30.09,10,10,10,21,10,24,0.00,0,,177
2013-3-14,83,59,35,23,19,15,40,25,9,30.19,30.10,30.03,10,10,10,14,5,20,0.00,0,,356
2013-3-15,90,65,39,25,15,5,34,20,5,30.03,29.88,29.71,10,10,10,20,6,24,0.00,0,,236
2013-3-16,88,67,46,34,19,9,40,23,5,29.72,29.63,29.49,10,10,9,29,7,33,0.00,0,,7
2013-3-17,78,61,44,35,27,12,62,37,12,29.78,29.66,29.54,10,8,1,41,12,51,0.00,1,,293
2013-3-18,79,59,38,19,9,0,33,19,5,29.89,29.78,29.65,10,10,10,21,8,26,0.00,0,,251
2013-3-19,73,58,43,32,15,6,50,30,10,30.14,29.90,29.81,10,10,10,28,7,36,0.00,1,,32
2013-3-20,64,50,36,35,28,19,55,41,26,30.27,30.06,29.79,10,10,10,24,12,30,0.00,1,,163
2013-3-21,82,62,41,34,24,14,70,39,8,29.75,29.57,29.42,10,9,2,35,14,44,0.00,1,,264
2013-3-22,66,55,44,38,29,9,65,42,18,29.79,29.64,29.54,10,9,7,17,8,21,0.00,1,,22
2013-3-23,76,53,30,37,0,-24,70,36,2,30.05,29.70,29.49,10,6,0,40,20,51,0.00,4,,308
2013-3-24,52,36,20,9,4,0,38,26,13,30.23,30.09,29.93,10,10,10,18,7,26,0.00,0,,157
2013-3-25,52,39,25,11,7,4,42,30,17,30.32,30.22,30.09,10,10,10,17,8,30,0.00,0,,137
2013-3-26,66,46,25,15,10,3,40,26,12,30.28,30.13,29.97,10,10,10,25,13,31,0.00,0,,176
2013-3-27,81,60,39,28,19,10,45,27,9,30.05,29.91,29.81,10,10,10,24,9,30,0.00,0,,183
2013-3-28,82,63,43,38,26,15,76,43,10,30.01,29.91,29.85,10,10,9,17,7,23,0.00,0,,18
2013-3-29,83,63,42,37,19,7,42,25,8,29.99,29.91,29.83,10,10,9,17,5,23,0.00,0,,267
2013-3-30,84,63,41,23,17,8,31,20,9,29.98,29.87,29.78,10,10,10,23,7,28,0.00,0,,299
2013-3-31,74,64,53,41,36,20,64,40,15,30.04,29.91,29.77,10,9,2,35,9,44,0.00,2,,13